sensor_id;sensor_type;location;lat;lon;timestamp;temperature;humidity
17033;DHT22;63208;52.178;21.016;2023-12-20T00:00:40;6.50;99.90
17033;DHT22;63208;52.178;21.016;2023-12-20T00:03:07;6.50;99.90
17033;DHT22;63208;52.178;21.016;2023-12-20T00:05:34;6.50;99.90
17033;DHT22;63208;52.178;21.016;2023-12-20T00:08:01;6.50;99.90
17033;DHT22;63208;52.178;21.016;2023-12-20T00:10:28;6.50;99.90
17033;DHT22;63208;52.178;21.016;2023-12-20T00:12:56;6.50;99.90
17033;DHT22;63208;52.178;21.016;2023-12-20T00:15:22;6.50;99.90
17033;DHT22;63208;52.178;21.016;2023-12-20T00:17:49;6.60;99.90
17033;DHT22;63208;52.178;21.016;2023-12-20T00:20:15;6.60;99.90
17033;DHT22;63208;52.178;21.016;2023-12-20T00:22:42;6.60;99.90
17033;DHT22;63208;52.178;21.016;2023-12-20T00:25:09;6.60;99.90
17033;DHT22;63208;52.178;21.016;2023-12-20T00:27:35;6.60;99.90
17033;DHT22;63208;52.178;21.016;2023-12-20T00:30:03;6.60;99.90
17033;DHT22;63208;52.178;21.016;2023-12-20T00:32:30;6.60;99.90
17033;DHT22;63208;52.178;21.016;2023-12-20T00:34:57;6.70;99.90
17033;DHT22;63208;52.178;21.016;2023-12-20T00:37:23;6.70;99.90
17033;DHT22;63208;52.178;21.016;2023-12-20T00:39:50;6.70;99.90
17033;DHT22;63208;52.178;21.016;2023-12-20T00:42:17;6.70;99.90
17033;DHT22;63208;52.178;21.016;2023-12-20T00:44:43;6.70;99.90
17033;DHT22;63208;52.178;21.016;2023-12-20T00:47:11;6.70;99.90
17033;DHT22;63208;52.178;21.016;2023-12-20T00:49:38;6.70;99.90
17033;DHT22;63208;52.178;21.016;2023-12-20T00:52:05;6.70;99.90
17033;DHT22;63208;52.178;21.016;2023-12-20T00:54:32;6.70;99.90
17033;DHT22;63208;52.178;21.016;2023-12-20T00:56:58;6.70;99.90
17033;DHT22;63208;52.178;21.016;2023-12-20T00:59:25;6.70;99.90
17033;DHT22;63208;52.178;21.016;2023-12-20T01:01:51;6.70;99.90
17033;DHT22;63208;52.178;21.016;2023-12-20T01:04:20;6.70;99.90
17033;DHT22;63208;52.178;21.016;2023-12-20T01:06:46;6.70;99.90
17033;DHT22;63208;52.178;21.016;2023-12-20T01:09:13;6.70;99.90
17033;DHT22;63208;52.178;21.016;2023-12-20T01:11:39;6.70;99.90
17033;DHT22;63208;52.178;21.016;2023-12-20T01:14:06;6.70;99.90
17033;DHT22;63208;52.178;21.016;2023-12-20T01:16:33;6.70;99.90
17033;DHT22;63208;52.178;21.016;2023-12-20T01:18:59;6.70;99.90
17033;DHT22;63208;52.178;21.016;2023-12-20T01:21:27;6.70;99.90
17033;DHT22;63208;52.178;21.016;2023-12-20T01:23:54;6.70;99.90
17033;DHT22;63208;52.178;21.016;2023-12-20T01:26:20;6.70;99.90
17033;DHT22;63208;52.178;21.016;2023-12-20T01:28:47;6.70;99.90
17033;DHT22;63208;52.178;21.016;2023-12-20T01:31:14;6.70;99.90
17033;DHT22;63208;52.178;21.016;2023-12-20T01:33:40;6.70;99.90
17033;DHT22;63208;52.178;21.016;2023-12-20T01:36:07;6.70;99.90
17033;DHT22;63208;52.178;21.016;2023-12-20T01:38:35;6.70;99.90
17033;DHT22;63208;52.178;21.016;2023-12-20T01:41:01;6.70;99.90
17033;DHT22;63208;52.178;21.016;2023-12-20T01:43:29;6.70;99.90
17033;DHT22;63208;52.178;21.016;2023-12-20T01:45:56;6.70;99.90
17033;DHT22;63208;52.178;21.016;2023-12-20T01:48:23;6.70;99.90
17033;DHT22;63208;52.178;21.016;2023-12-20T01:50:50;6.70;99.90
17033;DHT22;63208;52.178;21.016;2023-12-20T01:53:17;6.70;99.90
17033;DHT22;63208;52.178;21.016;2023-12-20T01:55:46;6.70;99.90
17033;DHT22;63208;52.178;21.016;2023-12-20T01:58:13;6.70;99.90
17033;DHT22;63208;52.178;21.016;2023-12-20T02:00:40;6.70;99.90
17033;DHT22;63208;52.178;21.016;2023-12-20T02:03:07;6.70;99.90
17033;DHT22;63208;52.178;21.016;2023-12-20T02:05:34;6.70;99.90
17033;DHT22;63208;52.178;21.016;2023-12-20T02:08:01;6.70;99.90
17033;DHT22;63208;52.178;21.016;2023-12-20T02:10:28;6.70;99.90
17033;DHT22;63208;52.178;21.016;2023-12-20T02:12:56;6.70;99.90
17033;DHT22;63208;52.178;21.016;2023-12-20T02:15:23;6.70;99.90
17033;DHT22;63208;52.178;21.016;2023-12-20T02:17:50;6.70;99.90
17033;DHT22;63208;52.178;21.016;2023-12-20T02:20:16;6.70;99.90
17033;DHT22;63208;52.178;21.016;2023-12-20T02:22:44;6.70;99.90
17033;DHT22;63208;52.178;21.016;2023-12-20T02:25:11;6.70;99.90
17033;DHT22;63208;52.178;21.016;2023-12-20T02:27:38;6.70;99.90
17033;DHT22;63208;52.178;21.016;2023-12-20T02:30:05;6.70;99.90
17033;DHT22;63208;52.178;21.016;2023-12-20T02:32:32;6.70;99.90
17033;DHT22;63208;52.178;21.016;2023-12-20T02:34:58;6.70;99.90
17033;DHT22;63208;52.178;21.016;2023-12-20T02:37:25;6.70;99.90
17033;DHT22;63208;52.178;21.016;2023-12-20T02:39:53;6.70;99.90
17033;DHT22;63208;52.178;21.016;2023-12-20T02:42:19;6.70;99.90
17033;DHT22;63208;52.178;21.016;2023-12-20T02:44:46;6.70;99.90
17033;DHT22;63208;52.178;21.016;2023-12-20T02:47:13;6.70;99.90
17033;DHT22;63208;52.178;21.016;2023-12-20T02:49:39;6.70;99.90
17033;DHT22;63208;52.178;21.016;2023-12-20T02:52:06;6.70;99.90
17033;DHT22;63208;52.178;21.016;2023-12-20T02:54:32;6.70;99.90
17033;DHT22;63208;52.178;21.016;2023-12-20T02:57:00;6.70;99.90
17033;DHT22;63208;52.178;21.016;2023-12-20T02:59:27;6.80;99.90
17033;DHT22;63208;52.178;21.016;2023-12-20T03:01:54;6.80;99.90
17033;DHT22;63208;52.178;21.016;2023-12-20T03:04:20;6.80;99.90
17033;DHT22;63208;52.178;21.016;2023-12-20T03:06:47;6.80;99.90
17033;DHT22;63208;52.178;21.016;2023-12-20T03:09:13;6.80;99.90
17033;DHT22;63208;52.178;21.016;2023-12-20T03:11:40;6.80;99.90
17033;DHT22;63208;52.178;21.016;2023-12-20T03:14:08;6.80;99.90
17033;DHT22;63208;52.178;21.016;2023-12-20T03:16:35;6.80;99.90
17033;DHT22;63208;52.178;21.016;2023-12-20T03:19:01;6.70;99.90
17033;DHT22;63208;52.178;21.016;2023-12-20T03:28:49;6.60;99.90
17033;DHT22;63208;52.178;21.016;2023-12-20T03:31:17;6.80;99.90
17033;DHT22;63208;52.178;21.016;2023-12-20T03:33:43;6.80;99.90
17033;DHT22;63208;52.178;21.016;2023-12-20T03:36:10;6.80;99.90
17033;DHT22;63208;52.178;21.016;2023-12-20T03:38:37;6.80;99.90
17033;DHT22;63208;52.178;21.016;2023-12-20T03:41:04;6.80;99.90
17033;DHT22;63208;52.178;21.016;2023-12-20T03:43:30;6.80;99.90
17033;DHT22;63208;52.178;21.016;2023-12-20T03:45:57;6.70;99.90
17033;DHT22;63208;52.178;21.016;2023-12-20T03:48:26;6.70;99.90
17033;DHT22;63208;52.178;21.016;2023-12-20T03:50:53;6.70;99.90
17033;DHT22;63208;52.178;21.016;2023-12-20T03:53:19;6.70;99.90
17033;DHT22;63208;52.178;21.016;2023-12-20T03:55:46;6.70;99.90
17033;DHT22;63208;52.178;21.016;2023-12-20T03:58:13;6.70;99.90
17033;DHT22;63208;52.178;21.016;2023-12-20T04:00:39;6.70;99.90
17033;DHT22;63208;52.178;21.016;2023-12-20T04:03:06;6.70;99.90
17033;DHT22;63208;52.178;21.016;2023-12-20T04:20:16;6.70;99.90
17033;DHT22;63208;52.178;21.016;2023-12-20T04:22:43;6.70;99.90
17033;DHT22;63208;52.178;21.016;2023-12-20T04:25:09;6.70;99.90
17033;DHT22;63208;52.178;21.016;2023-12-20T04:27:36;6.70;99.90
17033;DHT22;63208;52.178;21.016;2023-12-20T04:30:03;6.70;99.90
17033;DHT22;63208;52.178;21.016;2023-12-20T04:32:30;6.70;99.90
17033;DHT22;63208;52.178;21.016;2023-12-20T04:34:57;6.70;99.90
17033;DHT22;63208;52.178;21.016;2023-12-20T04:37:25;6.70;99.90
17033;DHT22;63208;52.178;21.016;2023-12-20T04:39:51;6.70;99.90
17033;DHT22;63208;52.178;21.016;2023-12-20T04:42:18;6.70;99.90
17033;DHT22;63208;52.178;21.016;2023-12-20T04:44:45;5.90;99.90
17033;DHT22;63208;52.178;21.016;2023-12-20T04:47:12;6.70;99.90
17033;DHT22;63208;52.178;21.016;2023-12-20T04:49:38;6.70;99.90
17033;DHT22;63208;52.178;21.016;2023-12-20T04:52:05;6.70;99.90
17033;DHT22;63208;52.178;21.016;2023-12-20T04:54:33;6.70;99.90
17033;DHT22;63208;52.178;21.016;2023-12-20T04:57:00;6.70;99.90
17033;DHT22;63208;52.178;21.016;2023-12-20T04:59:26;6.70;99.90
17033;DHT22;63208;52.178;21.016;2023-12-20T05:01:53;6.70;99.90
17033;DHT22;63208;52.178;21.016;2023-12-20T05:04:20;6.70;99.90
17033;DHT22;63208;52.178;21.016;2023-12-20T05:06:46;6.70;99.90
17033;DHT22;63208;52.178;21.016;2023-12-20T05:09:15;6.70;99.90
17033;DHT22;63208;52.178;21.016;2023-12-20T05:11:43;6.80;99.90
17033;DHT22;63208;52.178;21.016;2023-12-20T05:14:09;6.70;99.90
17033;DHT22;63208;52.178;21.016;2023-12-20T05:16:36;6.70;99.90
17033;DHT22;63208;52.178;21.016;2023-12-20T05:19:02;6.70;99.90
17033;DHT22;63208;52.178;21.016;2023-12-20T05:21:32;6.70;99.90
17033;DHT22;63208;52.178;21.016;2023-12-20T05:23:58;6.70;99.90
17033;DHT22;63208;52.178;21.016;2023-12-20T05:26:25;6.70;99.90
17033;DHT22;63208;52.178;21.016;2023-12-20T05:28:53;6.70;99.90
17033;DHT22;63208;52.178;21.016;2023-12-20T05:31:19;6.70;99.90
17033;DHT22;63208;52.178;21.016;2023-12-20T05:33:46;6.70;99.90
17033;DHT22;63208;52.178;21.016;2023-12-20T05:36:13;7.60;99.90
17033;DHT22;63208;52.178;21.016;2023-12-20T05:38:40;6.70;99.90
17033;DHT22;63208;52.178;21.016;2023-12-20T05:41:07;6.70;99.90
17033;DHT22;63208;52.178;21.016;2023-12-20T05:43:33;6.70;99.90
17033;DHT22;63208;52.178;21.016;2023-12-20T05:46:01;6.70;99.90
17033;DHT22;63208;52.178;21.016;2023-12-20T05:48:28;6.70;99.90
17033;DHT22;63208;52.178;21.016;2023-12-20T05:50:55;6.70;99.90
17033;DHT22;63208;52.178;21.016;2023-12-20T05:53:21;6.70;99.90
17033;DHT22;63208;52.178;21.016;2023-12-20T05:55:48;6.70;99.90
17033;DHT22;63208;52.178;21.016;2023-12-20T05:58:14;6.60;99.90
17033;DHT22;63208;52.178;21.016;2023-12-20T06:00:41;6.60;99.90
17033;DHT22;63208;52.178;21.016;2023-12-20T06:03:09;6.60;99.90
17033;DHT22;63208;52.178;21.016;2023-12-20T06:05:36;6.70;99.90
17033;DHT22;63208;52.178;21.016;2023-12-20T06:08:02;6.60;99.90
17033;DHT22;63208;52.178;21.016;2023-12-20T06:10:29;6.60;99.90
17033;DHT22;63208;52.178;21.016;2023-12-20T06:12:56;6.60;99.90
17033;DHT22;63208;52.178;21.016;2023-12-20T06:15:24;6.60;99.90
17033;DHT22;63208;52.178;21.016;2023-12-20T06:17:50;6.60;99.90
17033;DHT22;63208;52.178;21.016;2023-12-20T06:20:18;6.60;99.90
17033;DHT22;63208;52.178;21.016;2023-12-20T06:22:45;6.60;99.90
17033;DHT22;63208;52.178;21.016;2023-12-20T06:25:12;6.60;99.90
17033;DHT22;63208;52.178;21.016;2023-12-20T06:27:38;6.60;99.90
17033;DHT22;63208;52.178;21.016;2023-12-20T06:30:06;6.60;99.90
17033;DHT22;63208;52.178;21.016;2023-12-20T06:32:34;6.60;99.90
17033;DHT22;63208;52.178;21.016;2023-12-20T06:35:01;6.50;99.90
17033;DHT22;63208;52.178;21.016;2023-12-20T06:37:29;6.60;99.90
17033;DHT22;63208;52.178;21.016;2023-12-20T06:39:55;6.50;99.90
17033;DHT22;63208;52.178;21.016;2023-12-20T06:42:22;6.60;99.90
17033;DHT22;63208;52.178;21.016;2023-12-20T06:44:49;6.60;99.90
17033;DHT22;63208;52.178;21.016;2023-12-20T06:47:15;6.60;99.90
17033;DHT22;63208;52.178;21.016;2023-12-20T06:49:42;6.60;99.90
17033;DHT22;63208;52.178;21.016;2023-12-20T06:52:09;6.50;99.90
17033;DHT22;63208;52.178;21.016;2023-12-20T06:54:37;6.60;99.90
17033;DHT22;63208;52.178;21.016;2023-12-20T06:57:03;6.50;99.90
17033;DHT22;63208;52.178;21.016;2023-12-20T06:59:30;6.60;99.90
17033;DHT22;63208;52.178;21.016;2023-12-20T07:01:56;6.60;99.90
17033;DHT22;63208;52.178;21.016;2023-12-20T07:04:23;6.50;99.90
17033;DHT22;63208;52.178;21.016;2023-12-20T07:06:50;6.60;99.90
17033;DHT22;63208;52.178;21.016;2023-12-20T07:09:19;6.60;99.90
17033;DHT22;63208;52.178;21.016;2023-12-20T07:11:47;6.60;99.90
17033;DHT22;63208;52.178;21.016;2023-12-20T07:14:13;6.60;99.90
17033;DHT22;63208;52.178;21.016;2023-12-20T07:16:40;6.60;99.90
17033;DHT22;63208;52.178;21.016;2023-12-20T07:19:07;6.60;99.90
17033;DHT22;63208;52.178;21.016;2023-12-20T07:21:33;6.60;99.90
17033;DHT22;63208;52.178;21.016;2023-12-20T07:24:00;6.60;99.90
17033;DHT22;63208;52.178;21.016;2023-12-20T07:26:26;6.60;99.90
17033;DHT22;63208;52.178;21.016;2023-12-20T07:28:54;6.60;99.90
17033;DHT22;63208;52.178;21.016;2023-12-20T07:31:21;6.60;99.90
17033;DHT22;63208;52.178;21.016;2023-12-20T07:33:49;6.60;99.90
17033;DHT22;63208;52.178;21.016;2023-12-20T07:36:16;6.60;99.90
17033;DHT22;63208;52.178;21.016;2023-12-20T07:38:42;6.60;99.90
17033;DHT22;63208;52.178;21.016;2023-12-20T07:41:09;6.90;99.90
17033;DHT22;63208;52.178;21.016;2023-12-20T07:43:36;6.60;99.90
17033;DHT22;63208;52.178;21.016;2023-12-20T07:46:07;6.60;99.90
17033;DHT22;63208;52.178;21.016;2023-12-20T07:48:34;6.60;99.90
17033;DHT22;63208;52.178;21.016;2023-12-20T07:51:01;6.60;99.90
17033;DHT22;63208;52.178;21.016;2023-12-20T07:53:27;6.60;99.90
17033;DHT22;63208;52.178;21.016;2023-12-20T07:55:55;6.60;99.90
17033;DHT22;63208;52.178;21.016;2023-12-20T07:58:21;6.60;99.90
17033;DHT22;63208;52.178;21.016;2023-12-20T08:00:48;6.60;99.90
17033;DHT22;63208;52.178;21.016;2023-12-20T08:03:16;6.60;99.90
17033;DHT22;63208;52.178;21.016;2023-12-20T08:05:43;6.50;99.90
17033;DHT22;63208;52.178;21.016;2023-12-20T08:08:09;6.50;99.90
17033;DHT22;63208;52.178;21.016;2023-12-20T08:10:36;6.50;99.90
17033;DHT22;63208;52.178;21.016;2023-12-20T08:13:02;6.50;99.90
17033;DHT22;63208;52.178;21.016;2023-12-20T08:15:29;6.50;99.90
17033;DHT22;63208;52.178;21.016;2023-12-20T08:17:56;6.40;99.90
17033;DHT22;63208;52.178;21.016;2023-12-20T08:20:24;6.50;99.90
17033;DHT22;63208;52.178;21.016;2023-12-20T08:22:51;6.50;99.90
17033;DHT22;63208;52.178;21.016;2023-12-20T08:25:17;6.50;99.90
17033;DHT22;63208;52.178;21.016;2023-12-20T08:27:44;6.50;99.90
17033;DHT22;63208;52.178;21.016;2023-12-20T08:30:10;6.50;99.90
17033;DHT22;63208;52.178;21.016;2023-12-20T08:32:37;6.50;99.90
17033;DHT22;63208;52.178;21.016;2023-12-20T08:35:04;6.50;99.90
17033;DHT22;63208;52.178;21.016;2023-12-20T08:37:32;6.50;99.90
17033;DHT22;63208;52.178;21.016;2023-12-20T08:39:59;6.50;99.90
17033;DHT22;63208;52.178;21.016;2023-12-20T08:42:26;6.50;99.90
17033;DHT22;63208;52.178;21.016;2023-12-20T08:44:56;6.50;99.90
17033;DHT22;63208;52.178;21.016;2023-12-20T08:47:23;6.50;99.90
17033;DHT22;63208;52.178;21.016;2023-12-20T08:49:49;6.50;99.90
17033;DHT22;63208;52.178;21.016;2023-12-20T08:52:16;6.50;99.90
17033;DHT22;63208;52.178;21.016;2023-12-20T08:54:44;6.50;99.90
17033;DHT22;63208;52.178;21.016;2023-12-20T08:57:11;6.50;99.90
17033;DHT22;63208;52.178;21.016;2023-12-20T08:59:37;7.90;99.90
17033;DHT22;63208;52.178;21.016;2023-12-20T09:02:04;6.50;99.90
17033;DHT22;63208;52.178;21.016;2023-12-20T09:04:31;6.50;99.90
17033;DHT22;63208;52.178;21.016;2023-12-20T09:06:59;6.50;99.90
17033;DHT22;63208;52.178;21.016;2023-12-20T09:09:26;6.50;99.90
17033;DHT22;63208;52.178;21.016;2023-12-20T09:11:54;6.50;99.90
17033;DHT22;63208;52.178;21.016;2023-12-20T09:14:21;6.50;99.90
17033;DHT22;63208;52.178;21.016;2023-12-20T09:16:47;6.60;99.90
17033;DHT22;63208;52.178;21.016;2023-12-20T09:19:16;6.50;99.90
17033;DHT22;63208;52.178;21.016;2023-12-20T09:21:43;6.50;99.90
17033;DHT22;63208;52.178;21.016;2023-12-20T09:24:09;6.50;99.90
17033;DHT22;63208;52.178;21.016;2023-12-20T09:26:36;6.50;99.90
17033;DHT22;63208;52.178;21.016;2023-12-20T09:29:06;6.50;99.90
17033;DHT22;63208;52.178;21.016;2023-12-20T09:31:36;6.50;99.90
17033;DHT22;63208;52.178;21.016;2023-12-20T09:34:02;6.50;99.90
17033;DHT22;63208;52.178;21.016;2023-12-20T09:36:29;6.50;99.90
17033;DHT22;63208;52.178;21.016;2023-12-20T09:38:59;6.50;99.90
17033;DHT22;63208;52.178;21.016;2023-12-20T09:41:26;6.50;99.90
17033;DHT22;63208;52.178;21.016;2023-12-20T09:43:54;6.60;99.90
17033;DHT22;63208;52.178;21.016;2023-12-20T09:46:22;6.60;99.90
17033;DHT22;63208;52.178;21.016;2023-12-20T09:48:50;6.60;99.90
17033;DHT22;63208;52.178;21.016;2023-12-20T09:51:18;6.60;99.90
17033;DHT22;63208;52.178;21.016;2023-12-20T09:53:44;6.50;99.90
17033;DHT22;63208;52.178;21.016;2023-12-20T09:56:12;6.60;99.90
17033;DHT22;63208;52.178;21.016;2023-12-20T09:58:39;6.60;99.90
17033;DHT22;63208;52.178;21.016;2023-12-20T10:01:06;6.60;99.90
17033;DHT22;63208;52.178;21.016;2023-12-20T10:03:34;6.50;99.90
17033;DHT22;63208;52.178;21.016;2023-12-20T10:06:01;6.60;99.90
17033;DHT22;63208;52.178;21.016;2023-12-20T10:08:28;6.50;99.90
17033;DHT22;63208;52.178;21.016;2023-12-20T10:10:55;6.60;99.90
17033;DHT22;63208;52.178;21.016;2023-12-20T10:13:27;6.60;99.90
17033;DHT22;63208;52.178;21.016;2023-12-20T10:15:54;6.60;99.90
17033;DHT22;63208;52.178;21.016;2023-12-20T10:18:21;6.60;99.90
17033;DHT22;63208;52.178;21.016;2023-12-20T10:20:49;6.60;99.90
17033;DHT22;63208;52.178;21.016;2023-12-20T10:23:15;6.60;99.90
17033;DHT22;63208;52.178;21.016;2023-12-20T10:25:43;6.60;99.90
17033;DHT22;63208;52.178;21.016;2023-12-20T10:28:10;6.60;99.90
17033;DHT22;63208;52.178;21.016;2023-12-20T10:30:37;6.60;99.90
17033;DHT22;63208;52.178;21.016;2023-12-20T10:42:53;6.60;99.90
17033;DHT22;63208;52.178;21.016;2023-12-20T10:45:20;6.70;99.90
17033;DHT22;63208;52.178;21.016;2023-12-20T10:47:46;6.70;99.90
17033;DHT22;63208;52.178;21.016;2023-12-20T10:50:13;6.70;99.90
17033;DHT22;63208;52.178;21.016;2023-12-20T11:12:20;6.60;99.90
17033;DHT22;63208;52.178;21.016;2023-12-20T11:14:51;6.60;99.90
17033;DHT22;63208;52.178;21.016;2023-12-20T11:17:19;6.70;99.90
17033;DHT22;63208;52.178;21.016;2023-12-20T11:20:05;6.70;99.90
17033;DHT22;63208;52.178;21.016;2023-12-20T11:34:48;6.60;99.90
17033;DHT22;63208;52.178;21.016;2023-12-20T11:47:04;6.50;99.90
17033;DHT22;63208;52.178;21.016;2023-12-20T11:51:59;8.00;99.90
17033;DHT22;63208;52.178;21.016;2023-12-20T12:06:40;6.60;99.90
17033;DHT22;63208;52.178;21.016;2023-12-20T12:09:09;6.60;99.90
17033;DHT22;63208;52.178;21.016;2023-12-20T12:11:36;6.60;99.90
17033;DHT22;63208;52.178;21.016;2023-12-20T12:14:03;6.60;99.90
17033;DHT22;63208;52.178;21.016;2023-12-20T12:16:29;6.60;99.90
17033;DHT22;63208;52.178;21.016;2023-12-20T12:18:56;6.50;99.90
17033;DHT22;63208;52.178;21.016;2023-12-20T12:21:23;6.60;99.90
17033;DHT22;63208;52.178;21.016;2023-12-20T12:23:50;6.50;99.90
17033;DHT22;63208;52.178;21.016;2023-12-20T12:31:14;6.60;99.90
17033;DHT22;63208;52.178;21.016;2023-12-20T12:33:41;6.50;99.90
17033;DHT22;63208;52.178;21.016;2023-12-20T12:36:09;6.50;99.90
17033;DHT22;63208;52.178;21.016;2023-12-20T12:38:36;6.40;99.90
17033;DHT22;63208;52.178;21.016;2023-12-20T12:41:03;6.40;99.90
17033;DHT22;63208;52.178;21.016;2023-12-20T12:43:31;6.30;99.90
17033;DHT22;63208;52.178;21.016;2023-12-20T12:45:57;6.30;99.90
17033;DHT22;63208;52.178;21.016;2023-12-20T12:53:19;6.30;99.90
17033;DHT22;63208;52.178;21.016;2023-12-20T13:00:40;6.40;99.90
17033;DHT22;63208;52.178;21.016;2023-12-20T13:08:01;6.40;99.90
17033;DHT22;63208;52.178;21.016;2023-12-20T13:15:23;6.40;99.90
17033;DHT22;63208;52.178;21.016;2023-12-20T13:32:34;6.30;99.90
17033;DHT22;63208;52.178;21.016;2023-12-20T13:35:01;6.30;99.90
17033;DHT22;63208;52.178;21.016;2023-12-20T13:37:29;6.30;99.90
17033;DHT22;63208;52.178;21.016;2023-12-20T13:39:55;6.30;99.90
17033;DHT22;63208;52.178;21.016;2023-12-20T13:44:49;6.30;99.90
17033;DHT22;63208;52.178;21.016;2023-12-20T14:04:27;6.30;99.90
17033;DHT22;63208;52.178;21.016;2023-12-20T14:06:54;6.30;99.90
17033;DHT22;63208;52.178;21.016;2023-12-20T14:19:10;6.20;99.90
17033;DHT22;63208;52.178;21.016;2023-12-20T14:21:38;6.30;99.90
17033;DHT22;63208;52.178;21.016;2023-12-20T14:24:05;6.30;99.90
17033;DHT22;63208;52.178;21.016;2023-12-20T14:26:31;6.30;99.90
17033;DHT22;63208;52.178;21.016;2023-12-20T14:28:58;6.30;99.90
17033;DHT22;63208;52.178;21.016;2023-12-20T14:31:24;6.20;99.90
17033;DHT22;63208;52.178;21.016;2023-12-20T14:33:51;6.20;99.90
17033;DHT22;63208;52.178;21.016;2023-12-20T14:36:19;6.20;99.90
17033;DHT22;63208;52.178;21.016;2023-12-20T14:38:47;6.20;99.90
17033;DHT22;63208;52.178;21.016;2023-12-20T14:41:15;6.20;99.90
17033;DHT22;63208;52.178;21.016;2023-12-20T14:43:42;6.20;99.90
17033;DHT22;63208;52.178;21.016;2023-12-20T14:46:09;6.20;99.90
17033;DHT22;63208;52.178;21.016;2023-12-20T14:48:35;6.10;99.90
17033;DHT22;63208;52.178;21.016;2023-12-20T14:58:24;6.10;99.90
17033;DHT22;63208;52.178;21.016;2023-12-20T15:00:52;6.10;99.90
17033;DHT22;63208;52.178;21.016;2023-12-20T15:03:18;6.10;99.90
17033;DHT22;63208;52.178;21.016;2023-12-20T15:05:45;6.00;99.90
17033;DHT22;63208;52.178;21.016;2023-12-20T15:08:13;6.00;99.90
17033;DHT22;63208;52.178;21.016;2023-12-20T15:10:39;6.00;99.90
17033;DHT22;63208;52.178;21.016;2023-12-20T15:20:29;6.00;99.90
17033;DHT22;63208;52.178;21.016;2023-12-20T15:22:58;6.00;99.90
17033;DHT22;63208;52.178;21.016;2023-12-20T15:25:30;5.90;99.90
17033;DHT22;63208;52.178;21.016;2023-12-20T15:27:57;5.90;99.90
17033;DHT22;63208;52.178;21.016;2023-12-20T15:30:23;6.00;99.90
17033;DHT22;63208;52.178;21.016;2023-12-20T15:32:50;5.90;99.90
17033;DHT22;63208;52.178;21.016;2023-12-20T15:35:17;5.90;99.90
17033;DHT22;63208;52.178;21.016;2023-12-20T15:37:45;5.90;99.90
17033;DHT22;63208;52.178;21.016;2023-12-20T15:40:11;5.90;99.90
17033;DHT22;63208;52.178;21.016;2023-12-20T15:42:38;5.90;99.90
17033;DHT22;63208;52.178;21.016;2023-12-20T15:45:06;5.90;99.90
17033;DHT22;63208;52.178;21.016;2023-12-20T15:47:33;5.90;99.90
17033;DHT22;63208;52.178;21.016;2023-12-20T15:52:28;5.90;99.90
17033;DHT22;63208;52.178;21.016;2023-12-20T15:54:56;5.90;99.90
17033;DHT22;63208;52.178;21.016;2023-12-20T15:57:23;5.90;99.90
17033;DHT22;63208;52.178;21.016;2023-12-20T15:59:49;5.90;99.90
17033;DHT22;63208;52.178;21.016;2023-12-20T16:02:16;6.00;99.90
17033;DHT22;63208;52.178;21.016;2023-12-20T16:04:43;6.00;99.90
17033;DHT22;63208;52.178;21.016;2023-12-20T16:07:10;6.00;99.90
17033;DHT22;63208;52.178;21.016;2023-12-20T16:09:36;6.00;99.90
17033;DHT22;63208;52.178;21.016;2023-12-20T16:12:05;6.00;99.90
17033;DHT22;63208;52.178;21.016;2023-12-20T16:14:31;6.00;99.90
17033;DHT22;63208;52.178;21.016;2023-12-20T16:19:25;6.00;99.90
17033;DHT22;63208;52.178;21.016;2023-12-20T16:21:52;6.00;99.90
17033;DHT22;63208;52.178;21.016;2023-12-20T16:26:45;6.00;99.90
17033;DHT22;63208;52.178;21.016;2023-12-20T16:29:13;6.00;99.90
17033;DHT22;63208;52.178;21.016;2023-12-20T16:34:07;6.00;99.90
17033;DHT22;63208;52.178;21.016;2023-12-20T16:36:48;6.00;99.90
17033;DHT22;63208;52.178;21.016;2023-12-20T16:39:14;6.20;99.90
17033;DHT22;63208;52.178;21.016;2023-12-20T16:41:41;6.10;99.90
17033;DHT22;63208;52.178;21.016;2023-12-20T16:44:08;6.00;99.90
17033;DHT22;63208;52.178;21.016;2023-12-20T16:49:03;6.00;99.90
17033;DHT22;63208;52.178;21.016;2023-12-20T16:51:29;6.00;99.90
17033;DHT22;63208;52.178;21.016;2023-12-20T16:53:56;6.00;99.90
17033;DHT22;63208;52.178;21.016;2023-12-20T16:56:23;6.00;99.90
17033;DHT22;63208;52.178;21.016;2023-12-20T16:58:49;6.00;99.90
17033;DHT22;63208;52.178;21.016;2023-12-20T17:01:16;6.00;99.90
17033;DHT22;63208;52.178;21.016;2023-12-20T17:06:12;6.00;99.90
17033;DHT22;63208;52.178;21.016;2023-12-20T17:08:38;6.00;99.90
17033;DHT22;63208;52.178;21.016;2023-12-20T17:11:05;6.00;99.90
17033;DHT22;63208;52.178;21.016;2023-12-20T17:13:31;6.00;99.90
17033;DHT22;63208;52.178;21.016;2023-12-20T17:15:58;6.00;99.90
17033;DHT22;63208;52.178;21.016;2023-12-20T17:18:25;6.00;99.90
17033;DHT22;63208;52.178;21.016;2023-12-20T17:20:51;6.00;99.90
17033;DHT22;63208;52.178;21.016;2023-12-20T17:23:19;6.00;99.90
17033;DHT22;63208;52.178;21.016;2023-12-20T17:25:46;6.00;99.90
17033;DHT22;63208;52.178;21.016;2023-12-20T17:28:12;6.00;99.90
17033;DHT22;63208;52.178;21.016;2023-12-20T17:30:39;6.00;99.90
17033;DHT22;63208;52.178;21.016;2023-12-20T17:33:06;6.00;99.90
17033;DHT22;63208;52.178;21.016;2023-12-20T17:35:32;6.00;99.90
17033;DHT22;63208;52.178;21.016;2023-12-20T17:37:59;5.90;99.90
17033;DHT22;63208;52.178;21.016;2023-12-20T17:52:43;6.00;99.90
17033;DHT22;63208;52.178;21.016;2023-12-20T17:55:09;5.90;99.90
17033;DHT22;63208;52.178;21.016;2023-12-20T17:57:36;5.90;99.90
17033;DHT22;63208;52.178;21.016;2023-12-20T18:00:10;5.90;99.90
17033;DHT22;63208;52.178;21.016;2023-12-20T18:05:04;5.90;99.90
17033;DHT22;63208;52.178;21.016;2023-12-20T18:07:31;5.90;99.90
17033;DHT22;63208;52.178;21.016;2023-12-20T18:09:59;5.90;99.90
17033;DHT22;63208;52.178;21.016;2023-12-20T18:12:26;5.90;99.90
17033;DHT22;63208;52.178;21.016;2023-12-20T18:14:52;5.90;99.90
17033;DHT22;63208;52.178;21.016;2023-12-20T18:17:19;5.90;99.90
17033;DHT22;63208;52.178;21.016;2023-12-20T18:19:45;5.90;99.90
17033;DHT22;63208;52.178;21.016;2023-12-20T18:22:12;6.00;99.90
17033;DHT22;63208;52.178;21.016;2023-12-20T18:27:08;6.00;99.90
17033;DHT22;63208;52.178;21.016;2023-12-20T18:29:35;5.90;99.90
17033;DHT22;63208;52.178;21.016;2023-12-20T18:32:02;5.90;99.90
17033;DHT22;63208;52.178;21.016;2023-12-20T18:34:28;5.80;99.90
17033;DHT22;63208;52.178;21.016;2023-12-20T18:36:58;5.80;99.90
17033;DHT22;63208;52.178;21.016;2023-12-20T18:39:25;5.80;99.90
17033;DHT22;63208;52.178;21.016;2023-12-20T18:41:52;5.70;99.90
17033;DHT22;63208;52.178;21.016;2023-12-20T18:44:20;5.80;99.90
17033;DHT22;63208;52.178;21.016;2023-12-20T18:46:46;5.80;99.90
17033;DHT22;63208;52.178;21.016;2023-12-20T18:49:13;5.80;99.90
17033;DHT22;63208;52.178;21.016;2023-12-20T18:51:40;5.70;99.90